首页
METAR-TAF:

METAR-TAF

机场 :

拉巴特-塞拉国际机场

拉巴特, 摩洛哥

纬度: 34-03N, 经度: 006-46W, 海拔: 84米

当前天气观测

该预报发布于16分钟前的08:30 UTC
风速3节,风向西转西北,在西转西南之间变化
温度 23°C
湿度 73%
气压 1018 hPa
能见度10公里或以上
少量云层高于2000英尺

METAR: GMME 140830Z 29003KT 240V350 9999 FEW020 23/18 Q1018 NOSIG

时间: 09:46 (08:46 UTC)

预报

该预报发布于3小时和46分钟前的05:00 UTC
预报有效从14日的 06点(UTC)到 15日的 12点(UTC)
风速6节,风向北转西北
能見度: 8000
散云层高于1500英尺
短暂存在
从 14日的 10点(UTC)到 14日的 16点(UTC)
风速10节,风向东南
能见度10公里或以上
1500米以下无云,无积雨云

TAF: GMME 140500Z 1406/1512 34006KT 8000 SCT015 TEMPO 1410/1416 14010KT CAVOK

超过4000个机场的气象观测和天气预报(METAR&TAF报告)。

可查询的气象台以黄色和红色小点在地图上表示。

将鼠标移到小点上方,可查看气象台名称。

然后点击查看天气观测和预报。

如需切换地图:点击带黑十字的绿色按钮放大地图;点击带横线的绿色按钮缩小地图;或者点击绿色箭头查看邻近地区的地图。


METAR-TAF: